Time;durP1;ratioP1;P1;durP2;ratioP2;P2;SDS_P1;SDS_P2;PMS_P1;PMS_P2;Temp;Humidity;BMP_temperature;BMP_pressure;BME280_temperature;BME280_humidity;BME280_pressure;Samples;Min_cycle;Max_cycle;Signal;HPM_P1;HPM_P2
2023/08/29 00:01:22;;;;;;;3.17;2.05;;;;;;;;;;4895297;29;20213;-81
2023/08/29 00:03:51;;;;;;;2.58;2.38;;;;;;;;;;4895361;29;20330;-83
2023/08/29 00:06:21;;;;;;;5.85;1.85;;;;;;;;;;4895465;29;20288;-81
2023/08/29 00:08:48;;;;;;;2.88;2.10;;;;;;;;;;4894858;29;20247;-81
2023/08/29 00:11:15;;;;;;;2.45;2.35;;;;;;;;;;4895494;29;20205;-83
2023/08/29 00:13:43;;;;;;;2.28;1.98;;;;;;;;;;4894062;29;20212;-82
2023/08/29 00:16:15;;;;;;;2.90;2.70;;;;;;;;;;4894917;29;20208;-81
2023/08/29 00:18:42;;;;;;;6.75;2.00;;;;;;;;;;4894522;29;20252;-82
2023/08/29 00:21:10;;;;;;;2.88;2.17;;;;;;;;;;4894344;29;20271;-81
2023/08/29 00:23:38;;;;;;;2.83;2.50;;;;;;;;;;4894436;29;20244;-82
2023/08/29 00:26:05;;;;;;;2.25;2.15;;;;;;;;;;4894768;29;20209;-83
2023/08/29 00:28:32;;;;;;;2.20;2.10;;;;;;;;;;4894560;29;20201;-81
2023/08/29 00:30:59;;;;;;;3.38;1.83;;;;;;;;;;4893393;29;20241;-83
2023/08/29 00:33:26;;;;;;;1.90;1.80;;;;;;;;;;4894642;29;20224;-82
2023/08/29 00:35:53;;;;;;;2.30;2.20;;;;;;;;;;4895404;29;20221;-83
2023/08/29 00:38:21;;;;;;;2.33;2.22;;;;;;;;;;4893170;29;20679;-84
2023/08/29 00:40:49;;;;;;;1.60;1.60;;;;;;;;;;4894759;29;20205;-83
2023/08/29 00:43:16;;;;;;;2.30;2.10;;;;;;;;;;4894424;29;20213;-82
2023/08/29 00:45:43;;;;;;;1.80;1.70;;;;;;;;;;4894128;29;20707;-82
2023/08/29 00:48:10;;;;;;;1.75;1.65;;;;;;;;;;4894341;29;20208;-81
2023/08/29 00:50:37;;;;;;;2.00;1.90;;;;;;;;;;4893968;29;20296;-82
2023/08/29 00:53:05;;;;;;;2.58;2.38;;;;;;;;;;4894536;29;20213;-81
2023/08/29 00:55:33;;;;;;;1.98;1.63;;;;;;;;;;4894358;29;20364;-82
2023/08/29 00:58:02;;;;;;;2.28;2.17;;;;;;;;;;4894307;29;20210;-82
2023/08/29 01:00:30;;;;;;;2.67;1.90;;;;;;;;;;4893771;29;20208;-81
2023/08/29 01:02:57;;;;;;;3.50;1.90;;;;;;;;;;4893552;29;20615;-81
2023/08/29 01:05:24;;;;;;;2.00;1.90;;;;;;;;;;4894142;29;20260;-82
2023/08/29 01:07:52;;;;;;;2.03;1.92;;;;;;;;;;4892859;29;20209;-81
2023/08/29 01:10:24;;;;;;;2.08;1.90;;;;;;;;;;4894010;29;20291;-81
2023/08/29 01:12:53;;;;;;;2.00;1.80;;;;;;;;;;4894256;29;20209;-81
2023/08/29 01:15:23;;;;;;;2.25;2.10;;;;;;;;;;4893067;29;20205;-82
2023/08/29 01:17:54;;;;;;;1.58;1.58;;;;;;;;;;4894219;29;20280;-82
2023/08/29 01:20:22;;;;;;;2.20;2.10;;;;;;;;;;4894111;29;20205;-82
2023/08/29 01:22:55;;;;;;;1.58;1.58;;;;;;;;;;4894247;29;20193;-81
2023/08/29 01:25:26;;;;;;;1.75;1.65;;;;;;;;;;4894567;29;20312;-82
2023/08/29 01:27:55;;;;;;;4.78;1.80;;;;;;;;;;4894439;29;20212;-81
2023/08/29 01:30:22;;;;;;;2.33;2.15;;;;;;;;;;4892992;29;20298;-81
2023/08/29 01:32:51;;;;;;;3.10;1.90;;;;;;;;;;4879184;29;20238;-82
2023/08/29 01:35:18;;;;;;;2.22;2.03;;;;;;;;;;4875253;29;20209;-82
2023/08/29 01:37:46;;;;;;;1.88;1.77;;;;;;;;;;4874678;29;20255;-81
2023/08/29 01:40:13;;;;;;;1.90;1.80;;;;;;;;;;4875387;29;20296;-81
2023/08/29 01:42:40;;;;;;;2.33;2.22;;;;;;;;;;4874740;29;20273;-83
2023/08/29 01:45:10;;;;;;;1.63;1.52;;;;;;;;;;4875069;29;20206;-81
2023/08/29 01:47:38;;;;;;;2.03;1.92;;;;;;;;;;4875351;29;20588;-81
2023/08/29 01:50:06;;;;;;;3.42;2.78;;;;;;;;;;4873865;29;20312;-82
2023/08/29 01:52:33;;;;;;;2.10;2.00;;;;;;;;;;4875249;29;20201;-81
2023/08/29 01:55:01;;;;;;;2.17;2.00;;;;;;;;;;4874980;29;20212;-82
2023/08/29 01:57:30;;;;;;;1.58;1.48;;;;;;;;;;4874225;29;20209;-82
2023/08/29 01:59:59;;;;;;;1.70;1.60;;;;;;;;;;4875088;29;20273;-82
2023/08/29 02:02:28;;;;;;;2.30;2.10;;;;;;;;;;4875141;29;20682;-81
2023/08/29 02:04:56;;;;;;;1.88;1.77;;;;;;;;;;4874800;29;20220;-81
2023/08/29 02:07:23;;;;;;;2.45;2.03;;;;;;;;;;4874483;29;20213;-83
2023/08/29 02:09:51;;;;;;;2.33;1.92;;;;;;;;;;4875190;29;20252;-82
2023/08/29 02:12:19;;;;;;;2.13;2.03;;;;;;;;;;4874527;29;20308;-81
2023/08/29 02:14:46;;;;;;;1.65;1.55;;;;;;;;;;4874478;29;20300;-81
2023/08/29 02:17:13;;;;;;;2.00;1.80;;;;;;;;;;4874899;29;20274;-83
2023/08/29 02:19:41;;;;;;;1.83;1.73;;;;;;;;;;4874218;29;20216;-83
2023/08/29 02:22:09;;;;;;;1.98;1.88;;;;;;;;;;4874630;29;20206;-81
2023/08/29 02:24:37;;;;;;;2.33;2.10;;;;;;;;;;4875129;29;20237;-82
2023/08/29 02:27:05;;;;;;;1.85;1.80;;;;;;;;;;4875496;29;20276;-80
2023/08/29 02:29:32;;;;;;;1.80;1.70;;;;;;;;;;4874094;29;20243;-82
2023/08/29 02:31:59;;;;;;;1.52;1.42;;;;;;;;;;4873668;29;20237;-82
2023/08/29 02:34:26;;;;;;;1.65;1.65;;;;;;;;;;4874887;29;20810;-83
2023/08/29 02:36:55;;;;;;;1.77;1.67;;;;;;;;;;4874397;29;20657;-81
2023/08/29 02:39:22;;;;;;;2.17;2.08;;;;;;;;;;4874398;29;20205;-81
2023/08/29 02:41:49;;;;;;;1.80;1.70;;;;;;;;;;4874932;29;20209;-81
2023/08/29 02:44:17;;;;;;;2.53;2.35;;;;;;;;;;4874302;29;20321;-82
2023/08/29 02:46:44;;;;;;;1.67;1.60;;;;;;;;;;4873625;29;20205;-82
2023/08/29 02:49:13;;;;;;;1.98;1.85;;;;;;;;;;4876328;29;20264;-81
2023/08/29 02:51:40;;;;;;;2.40;2.20;;;;;;;;;;4876348;29;20648;-81
2023/08/29 02:54:09;;;;;;;5.38;2.00;;;;;;;;;;4875912;29;20209;-83
2023/08/29 02:56:36;;;;;;;2.88;2.08;;;;;;;;;;4878454;29;20278;-81
2023/08/29 02:59:02;;;;;;;1.85;1.75;;;;;;;;;;4877478;29;20288;-82
2023/08/29 03:01:29;;;;;;;1.98;1.85;;;;;;;;;;4876573;29;20209;-81
2023/08/29 03:03:56;;;;;;;2.22;2.13;;;;;;;;;;4877979;29;20218;-81
2023/08/29 03:06:23;;;;;;;2.25;2.15;;;;;;;;;;4877151;29;20214;-82
2023/08/29 03:08:50;;;;;;;2.45;2.25;;;;;;;;;;4877200;29;20229;-82
2023/08/29 03:11:18;;;;;;;2.17;2.08;;;;;;;;;;4877636;29;20245;-82
2023/08/29 03:13:45;;;;;;;1.95;1.75;;;;;;;;;;4877028;29;20522;-82
2023/08/29 03:16:13;;;;;;;2.10;2.00;;;;;;;;;;4893147;29;20690;-82
2023/08/29 03:18:40;;;;;;;2.47;2.38;;;;;;;;;;4896538;29;20236;-81
2023/08/29 03:21:08;;;;;;;2.33;2.17;;;;;;;;;;4895700;29;20300;-81
2023/08/29 03:23:36;;;;;;;2.35;2.13;;;;;;;;;;4896196;29;20243;-81
2023/08/29 03:26:03;;;;;;;2.33;2.22;;;;;;;;;;4895783;29;20216;-81
2023/08/29 03:28:32;;;;;;;2.22;2.13;;;;;;;;;;4895579;29;20209;-82
2023/08/29 03:31:08;;;;;;;2.67;2.47;;;;;;;;;;4895642;29;20652;-82
2023/08/29 03:33:35;;;;;;;2.45;2.28;;;;;;;;;;4895815;29;20201;-81
2023/08/29 03:36:03;;;;;;;3.47;2.22;;;;;;;;;;4895208;29;20208;-81
2023/08/29 03:38:30;;;;;;;2.05;1.98;;;;;;;;;;4895755;29;20252;-81
2023/08/29 03:40:58;;;;;;;2.90;2.72;;;;;;;;;;4895286;29;20304;-82
2023/08/29 03:43:27;;;;;;;2.42;2.20;;;;;;;;;;4895721;29;20208;-82
2023/08/29 03:45:59;;;;;;;3.70;2.45;;;;;;;;;;4894866;29;20205;-81
2023/08/29 03:48:27;;;;;;;2.08;1.98;;;;;;;;;;4895437;29;20742;-81
2023/08/29 03:50:54;;;;;;;2.42;2.08;;;;;;;;;;4894615;29;20232;-82
2023/08/29 03:53:22;;;;;;;2.75;2.55;;;;;;;;;;4895321;29;20201;-82
2023/08/29 03:55:49;;;;;;;2.60;2.40;;;;;;;;;;4894603;29;20223;-82
2023/08/29 03:58:16;;;;;;;2.65;2.50;;;;;;;;;;4895115;29;20287;-81
2023/08/29 04:00:43;;;;;;;4.72;2.80;;;;;;;;;;4895246;29;20208;-82
2023/08/29 04:03:12;;;;;;;2.50;2.40;;;;;;;;;;4894741;29;20648;-82
2023/08/29 04:05:39;;;;;;;3.35;3.08;;;;;;;;;;4895016;29;20208;-82
2023/08/29 04:08:07;;;;;;;3.38;2.55;;;;;;;;;;4895000;29;20292;-81
2023/08/29 04:10:38;;;;;;;6.85;2.85;;;;;;;;;;4894531;29;20323;-81
2023/08/29 04:13:06;;;;;;;7.05;5.97;;;;;;;;;;4893940;29;20224;-81
2023/08/29 04:15:33;;;;;;;6.88;6.13;;;;;;;;;;4893641;29;20209;-82
2023/08/29 04:18:00;;;;;;;3.38;3.08;;;;;;;;;;4894175;29;20674;-81
2023/08/29 04:20:29;;;;;;;4.80;3.42;;;;;;;;;;4894351;29;20679;-81
2023/08/29 04:22:58;;;;;;;4.03;3.22;;;;;;;;;;4895246;29;20223;-81
2023/08/29 04:25:26;;;;;;;4.25;3.88;;;;;;;;;;4894889;29;20212;-83
2023/08/29 04:27:53;;;;;;;3.60;3.25;;;;;;;;;;4894670;29;20223;-82
2023/08/29 04:30:20;;;;;;;6.07;3.17;;;;;;;;;;4894266;29;20348;-80
2023/08/29 04:32:48;;;;;;;4.10;3.75;;;;;;;;;;4894304;29;20208;-81
2023/08/29 04:35:17;;;;;;;3.55;3.25;;;;;;;;;;4894605;29;20205;-83
2023/08/29 04:37:47;;;;;;;3.17;2.97;;;;;;;;;;4894476;29;20208;-81
2023/08/29 04:40:17;;;;;;;6.18;3.53;;;;;;;;;;4894180;29;20276;-81
2023/08/29 04:42:44;;;;;;;4.50;4.10;;;;;;;;;;4893621;29;20197;-82
2023/08/29 04:45:12;;;;;;;4.03;3.47;;;;;;;;;;4893768;29;20209;-82
2023/08/29 04:47:40;;;;;;;3.92;3.45;;;;;;;;;;4894771;29;20265;-82
2023/08/29 04:50:08;;;;;;;3.63;3.05;;;;;;;;;;4893867;29;20228;-82
2023/08/29 04:52:36;;;;;;;5.03;3.50;;;;;;;;;;4893636;29;20675;-81
2023/08/29 04:55:06;;;;;;;9.27;6.75;;;;;;;;;;4894043;29;20220;-82
2023/08/29 04:57:35;;;;;;;7.32;3.28;;;;;;;;;;4892943;29;20193;-81
2023/08/29 05:00:05;;;;;;;3.05;2.83;;;;;;;;;;4893410;29;20209;-81
2023/08/29 05:02:32;;;;;;;3.55;3.35;;;;;;;;;;4894903;29;20215;-81
2023/08/29 05:05:02;;;;;;;5.13;4.63;;;;;;;;;;4897249;29;20291;-82
2023/08/29 05:07:30;;;;;;;3.55;3.25;;;;;;;;;;4903268;29;20513;-80
2023/08/29 05:09:57;;;;;;;19.70;14.15;;;;;;;;;;4893633;29;20280;-82
2023/08/29 05:12:25;;;;;;;2.97;2.83;;;;;;;;;;4893814;29;20216;-82
2023/08/29 05:14:54;;;;;;;4.28;4.03;;;;;;;;;;4894417;29;20204;-81
2023/08/29 05:17:21;;;;;;;4.72;4.32;;;;;;;;;;4893434;29;20264;-82
2023/08/29 05:19:49;;;;;;;4.20;3.90;;;;;;;;;;4893318;29;20215;-82
2023/08/29 05:22:16;;;;;;;5.40;3.08;;;;;;;;;;4894260;29;20217;-80
2023/08/29 05:24:42;;;;;;;3.30;3.13;;;;;;;;;;4893474;29;20208;-81
2023/08/29 05:27:10;;;;;;;3.08;2.97;;;;;;;;;;4893203;29;20654;-81
2023/08/29 05:29:41;;;;;;;11.20;8.57;;;;;;;;;;4877102;29;20295;-81
2023/08/29 05:32:08;;;;;;;2.83;2.53;;;;;;;;;;4893908;29;20309;-81
2023/08/29 05:34:35;;;;;;;3.08;2.70;;;;;;;;;;4892814;29;20251;-81
2023/08/29 05:37:03;;;;;;;2.80;2.70;;;;;;;;;;4893779;29;20206;-81
2023/08/29 05:39:30;;;;;;;2.80;2.60;;;;;;;;;;4893242;29;20204;-81
2023/08/29 05:41:57;;;;;;;3.05;2.67;;;;;;;;;;4889103;29;20253;-82
2023/08/29 05:44:26;;;;;;;2.88;2.72;;;;;;;;;;4890215;29;20208;-81
2023/08/29 05:46:55;;;;;;;6.22;2.53;;;;;;;;;;4882005;29;20580;-80
2023/08/29 05:49:22;;;;;;;11.20;8.80;;;;;;;;;;4872188;29;20202;-81
2023/08/29 05:51:49;;;;;;;10.65;8.85;;;;;;;;;;4874656;29;20240;-82
2023/08/29 05:54:17;;;;;;;9.68;3.97;;;;;;;;;;4874768;29;20209;-81
2023/08/29 05:56:43;;;;;;;3.25;3.00;;;;;;;;;;4873599;29;20241;-83
2023/08/29 05:59:10;;;;;;;35.17;21.65;;;;;;;;;;4874407;29;20588;-83
2023/08/29 06:01:37;;;;;;;5.50;4.07;;;;;;;;;;4874718;29;20210;-83
2023/08/29 06:04:06;;;;;;;3.53;3.33;;;;;;;;;;4874299;29;20213;-83
2023/08/29 06:06:33;;;;;;;2.92;2.70;;;;;;;;;;4875027;29;20583;-82
2023/08/29 06:09:02;;;;;;;3.20;2.97;;;;;;;;;;4874283;29;20683;-82
2023/08/29 06:11:29;;;;;;;5.47;3.13;;;;;;;;;;4873598;29;20253;-82
2023/08/29 06:13:56;;;;;;;3.50;2.80;;;;;;;;;;4873629;29;20666;-81
2023/08/29 06:16:23;;;;;;;9.75;3.47;;;;;;;;;;4874230;29;20228;-81
2023/08/29 06:18:52;;;;;;;3.33;3.13;;;;;;;;;;4874083;29;20283;-83
2023/08/29 06:21:20;;;;;;;5.15;2.75;;;;;;;;;;4874302;29;20213;-82
2023/08/29 06:23:47;;;;;;;7.97;3.58;;;;;;;;;;4874505;29;20200;-81
2023/08/29 06:26:15;;;;;;;7.82;3.17;;;;;;;;;;4875298;29;20664;-82
2023/08/29 06:28:43;;;;;;;4.95;3.03;;;;;;;;;;4875431;29;20205;-82
2023/08/29 06:31:10;;;;;;;2.63;2.42;;;;;;;;;;4877677;29;20718;-83
2023/08/29 06:33:39;;;;;;;3.40;2.88;;;;;;;;;;4878270;29;20204;-80
2023/08/29 06:36:06;;;;;;;3.03;2.70;;;;;;;;;;4880109;29;20301;-82
2023/08/29 06:38:34;;;;;;;2.67;2.58;;;;;;;;;;4878574;29;20205;-83
2023/08/29 06:41:02;;;;;;;3.80;2.55;;;;;;;;;;4876585;29;20212;-83
2023/08/29 06:43:30;;;;;;;3.17;2.30;;;;;;;;;;4878364;29;20213;-82
2023/08/29 06:45:58;;;;;;;2.72;2.63;;;;;;;;;;4879439;29;20205;-82
2023/08/29 06:48:29;;;;;;;3.03;2.47;;;;;;;;;;4883824;29;20229;-82
2023/08/29 06:50:57;;;;;;;2.50;2.40;;;;;;;;;;4886385;29;20240;-82
2023/08/29 06:53:27;;;;;;;3.28;2.42;;;;;;;;;;4887550;29;20668;-81
2023/08/29 06:55:56;;;;;;;3.03;2.13;;;;;;;;;;4886569;29;20690;-83
2023/08/29 06:58:23;;;;;;;4.78;2.17;;;;;;;;;;4877186;29;20217;-80
2023/08/29 07:00:51;;;;;;;2.75;2.25;;;;;;;;;;4878655;29;20201;-81
2023/08/29 07:03:18;;;;;;;4.05;2.22;;;;;;;;;;4878069;29;20213;-81
2023/08/29 07:05:45;;;;;;;3.13;2.60;;;;;;;;;;4877221;29;20217;-82
2023/08/29 07:08:13;;;;;;;2.40;2.20;;;;;;;;;;4877173;29;20205;-82
2023/08/29 07:10:40;;;;;;;2.70;2.40;;;;;;;;;;4876706;29;20240;-83
2023/08/29 07:13:09;;;;;;;2.85;2.33;;;;;;;;;;4877505;29;20713;-83
2023/08/29 07:15:38;;;;;;;2.83;2.30;;;;;;;;;;4883598;29;20212;-83
2023/08/29 07:18:05;;;;;;;3.90;2.60;;;;;;;;;;4881967;29;20206;-83
2023/08/29 07:20:33;;;;;;;2.88;2.25;;;;;;;;;;4877213;29;20248;-82
2023/08/29 07:23:00;;;;;;;2.50;2.40;;;;;;;;;;4877909;29;20659;-82
2023/08/29 07:25:38;;;;;;;5.22;2.63;;;;;;;;;;4876523;29;20217;-82
2023/08/29 07:28:05;;;;;;;3.28;2.97;;;;;;;;;;4877042;29;20239;-83
2023/08/29 07:30:34;;;;;;;4.00;2.58;;;;;;;;;;4878283;29;20241;-81
2023/08/29 07:33:00;;;;;;;2.90;2.70;;;;;;;;;;4881064;29;20236;-84
2023/08/29 07:35:27;;;;;;;3.30;3.10;;;;;;;;;;4888697;29;20216;-81
2023/08/29 07:37:55;;;;;;;2.80;2.60;;;;;;;;;;4875341;29;20209;-81
2023/08/29 07:40:22;;;;;;;2.63;2.00;;;;;;;;;;4865806;29;20248;-82
2023/08/29 07:42:49;;;;;;;2.25;2.15;;;;;;;;;;4876228;29;20311;-81
2023/08/29 07:45:17;;;;;;;3.05;2.78;;;;;;;;;;4876744;29;20698;-81
2023/08/29 07:47:45;;;;;;;2.53;2.42;;;;;;;;;;4875710;29;20225;-81
2023/08/29 07:50:12;;;;;;;8.27;2.67;;;;;;;;;;4876171;29;20317;-82
2023/08/29 07:52:39;;;;;;;3.15;2.35;;;;;;;;;;4876248;29;20744;-81
2023/08/29 07:55:07;;;;;;;2.90;2.65;;;;;;;;;;4892313;29;20808;-81
2023/08/29 07:57:34;;;;;;;3.53;2.40;;;;;;;;;;4895360;29;20447;-82
2023/08/29 08:00:03;;;;;;;3.08;2.88;;;;;;;;;;4895321;29;20319;-83
2023/08/29 08:02:33;;;;;;;2.90;2.70;;;;;;;;;;4894884;29;20228;-83
2023/08/29 08:05:03;;;;;;;4.45;2.97;;;;;;;;;;4895006;29;20229;-82
2023/08/29 08:07:33;;;;;;;3.67;3.03;;;;;;;;;;4895009;29;20292;-82
2023/08/29 08:10:06;;;;;;;3.08;2.88;;;;;;;;;;4893293;29;20237;-83
2023/08/29 08:12:32;;;;;;;2.67;2.47;;;;;;;;;;4894988;29;20712;-82
2023/08/29 08:15:01;;;;;;;4.13;2.80;;;;;;;;;;4894238;29;20585;-82
2023/08/29 08:17:29;;;;;;;3.47;2.70;;;;;;;;;;4894565;29;20339;-82
2023/08/29 08:19:56;;;;;;;4.75;3.22;;;;;;;;;;4894018;29;20300;-82
2023/08/29 08:22:26;;;;;;;2.88;2.70;;;;;;;;;;4894870;29;20284;-82
2023/08/29 08:24:53;;;;;;;3.50;3.20;;;;;;;;;;4893755;29;20448;-83
2023/08/29 08:27:21;;;;;;;5.20;3.00;;;;;;;;;;4894730;29;20233;-82
2023/08/29 08:29:48;;;;;;;3.35;3.15;;;;;;;;;;4894186;29;20275;-84
2023/08/29 08:32:16;;;;;;;3.22;2.92;;;;;;;;;;4894247;29;20454;-82
2023/08/29 08:34:44;;;;;;;2.97;2.80;;;;;;;;;;4894578;29;20216;-82
2023/08/29 08:37:12;;;;;;;2.85;2.75;;;;;;;;;;4894355;29;20251;-83
2023/08/29 08:39:40;;;;;;;5.00;3.42;;;;;;;;;;4892981;29;20225;-83
2023/08/29 08:42:10;;;;;;;3.50;3.20;;;;;;;;;;4894510;29;20673;-82
2023/08/29 08:44:41;;;;;;;3.35;3.13;;;;;;;;;;4877172;29;20233;-82
2023/08/29 08:47:08;;;;;;;3.35;3.10;;;;;;;;;;4893767;29;20616;-82
2023/08/29 08:49:37;;;;;;;3.80;2.95;;;;;;;;;;4894008;29;20224;-82
2023/08/29 08:52:07;;;;;;;3.92;2.92;;;;;;;;;;4893236;29;20248;-82
2023/08/29 08:54:34;;;;;;;2.88;2.78;;;;;;;;;;4893339;29;20271;-83
2023/08/29 08:57:03;;;;;;;3.10;2.90;;;;;;;;;;4893778;29;20288;-82
2023/08/29 08:59:33;;;;;;;3.65;3.03;;;;;;;;;;4894205;29;20233;-83
2023/08/29 09:02:02;;;;;;;4.60;2.70;;;;;;;;;;4893455;29;20247;-82
2023/08/29 09:04:29;;;;;;;3.92;3.60;;;;;;;;;;4893763;29;20235;-83
2023/08/29 09:06:57;;;;;;;3.22;2.95;;;;;;;;;;4893305;29;20613;-82
2023/08/29 09:09:25;;;;;;;2.70;2.60;;;;;;;;;;4892926;29;20233;-81
2023/08/29 09:11:53;;;;;;;5.30;3.08;;;;;;;;;;4893207;29;20245;-82
2023/08/29 09:14:23;;;;;;;3.05;2.85;;;;;;;;;;4894301;29;20714;-82
2023/08/29 09:16:54;;;;;;;3.50;3.28;;;;;;;;;;4892420;29;20765;-82
2023/08/29 09:19:22;;;;;;;3.22;2.92;;;;;;;;;;4881506;29;20670;-82
2023/08/29 09:21:50;;;;;;;3.47;3.10;;;;;;;;;;4873728;29;20229;-82
2023/08/29 09:24:24;;;;;;;5.72;3.55;;;;;;;;;;4874448;29;20266;-82
2023/08/29 09:26:51;;;;;;;3.63;3.33;;;;;;;;;;4874421;29;20233;-82
2023/08/29 09:29:19;;;;;;;2.92;2.83;;;;;;;;;;4873794;29;20229;-83
2023/08/29 09:31:49;;;;;;;4.22;3.05;;;;;;;;;;4873975;29;20276;-83
2023/08/29 09:34:26;;;;;;;3.28;3.05;;;;;;;;;;4874313;29;20324;-83
2023/08/29 09:36:55;;;;;;;3.80;2.97;;;;;;;;;;4873616;29;20240;-84
2023/08/29 09:39:22;;;;;;;5.63;3.53;;;;;;;;;;4873292;29;20225;-82
2023/08/29 09:42:02;;;;;;;3.00;2.80;;;;;;;;;;4873070;29;20269;-82
2023/08/29 09:44:31;;;;;;;3.90;3.10;;;;;;;;;;4874266;29;20221;-84
2023/08/29 09:47:00;;;;;;;3.85;3.63;;;;;;;;;;4874395;29;20240;-83
2023/08/29 09:49:32;;;;;;;4.15;3.22;;;;;;;;;;4874326;29;20333;-84
2023/08/29 09:52:01;;;;;;;3.47;3.28;;;;;;;;;;4873190;29;20248;-83
2023/08/29 09:54:29;;;;;;;3.72;3.47;;;;;;;;;;4887080;29;20311;-83
2023/08/29 09:56:58;;;;;;;3.53;3.33;;;;;;;;;;4892823;29;20233;-84
2023/08/29 09:59:26;;;;;;;3.50;3.20;;;;;;;;;;4893008;29;20248;-84
2023/08/29 10:01:53;;;;;;;7.60;3.50;;;;;;;;;;4893117;29;20332;-84
2023/08/29 10:04:25;;;;;;;4.10;3.08;;;;;;;;;;4896252;29;20228;-84
2023/08/29 10:06:55;;;;;;;9.50;3.10;;;;;;;;;;4896439;29;20221;-83
2023/08/29 10:09:22;;;;;;;4.22;3.20;;;;;;;;;;4896378;29;20697;-84
2023/08/29 10:11:50;;;;;;;3.65;3.30;;;;;;;;;;4895753;29;20261;-83
2023/08/29 10:14:19;;;;;;;3.28;3.08;;;;;;;;;;4897503;29;20229;-84
2023/08/29 10:16:47;;;;;;;3.70;3.40;;;;;;;;;;4895721;29;20670;-82
2023/08/29 10:19:14;;;;;;;3.17;2.97;;;;;;;;;;4896403;29;20654;-83
2023/08/29 10:21:43;;;;;;;4.82;3.35;;;;;;;;;;4896670;29;20248;-83
2023/08/29 10:24:12;;;;;;;3.28;3.08;;;;;;;;;;4896074;29;20236;-83
2023/08/29 10:26:41;;;;;;;8.65;3.25;;;;;;;;;;4892225;29;20224;-83
2023/08/29 10:29:11;;;;;;;2.70;2.60;;;;;;;;;;4896457;29;20236;-82
2023/08/29 10:31:39;;;;;;;4.85;3.05;;;;;;;;;;4895403;29;20245;-84
2023/08/29 10:34:07;;;;;;;4.43;3.30;;;;;;;;;;4896258;29;20249;-83
2023/08/29 10:36:36;;;;;;;3.17;3.05;;;;;;;;;;4896021;29;20231;-84
2023/08/29 10:39:09;;;;;;;2.95;2.80;;;;;;;;;;4895274;29;20745;-83
2023/08/29 10:41:44;;;;;;;5.97;3.30;;;;;;;;;;4896740;29;20228;-84
2023/08/29 10:44:44;;;;;;;3.15;2.90;;;;;;;;;;4895472;29;20220;-83
2023/08/29 10:47:15;;;;;;;3.38;3.17;;;;;;;;;;4852748;29;20234;-83
2023/08/29 10:49:43;;;;;;;3.03;2.85;;;;;;;;;;4888987;29;20229;-82
2023/08/29 10:52:11;;;;;;;4.18;2.72;;;;;;;;;;4894786;29;20698;-82
2023/08/29 10:54:42;;;;;;;5.65;3.17;;;;;;;;;;4896190;29;20725;-83
2023/08/29 10:57:28;;;;;;;3.10;2.90;;;;;;;;;;4895987;29;20247;-84
2023/08/29 10:59:57;;;;;;;4.72;3.40;;;;;;;;;;4895895;29;20300;-81
2023/08/29 11:02:24;;;;;;;3.35;3.15;;;;;;;;;;4896219;29;20251;-83
2023/08/29 11:04:54;;;;;;;3.22;3.03;;;;;;;;;;4896232;29;20653;-83
2023/08/29 11:07:26;;;;;;;9.38;3.30;;;;;;;;;;4894902;29;20585;-83
2023/08/29 11:10:11;;;;;;;5.20;3.40;;;;;;;;;;4895701;29;20674;-84
2023/08/29 11:13:01;;;;;;;3.38;3.20;;;;;;;;;;4895979;29;20328;-84
2023/08/29 11:15:43;;;;;;;3.47;3.20;;;;;;;;;;4894829;29;20236;-85
2023/08/29 11:18:20;;;;;;;3.08;2.85;;;;;;;;;;4895095;29;20240;-83
2023/08/29 11:20:48;;;;;;;3.28;3.08;;;;;;;;;;4895681;29;20225;-85
2023/08/29 11:23:16;;;;;;;4.35;2.97;;;;;;;;;;4894840;29;20224;-83
2023/08/29 11:25:45;;;;;;;3.67;3.38;;;;;;;;;;4894928;29;20233;-83
2023/08/29 11:28:14;;;;;;;3.60;3.35;;;;;;;;;;4895131;29;20228;-84
2023/08/29 11:30:41;;;;;;;3.38;3.17;;;;;;;;;;4895598;29;20257;-83
2023/08/29 11:33:09;;;;;;;3.17;2.85;;;;;;;;;;4894768;29;20717;-85
2023/08/29 11:35:37;;;;;;;4.13;3.10;;;;;;;;;;4894752;29;20229;-83
2023/08/29 11:38:04;;;;;;;3.30;2.80;;;;;;;;;;4894821;29;20264;-83
2023/08/29 11:40:31;;;;;;;3.67;3.22;;;;;;;;;;4894966;29;20268;-83
2023/08/29 11:42:59;;;;;;;3.20;3.00;;;;;;;;;;4894063;29;20232;-83
2023/08/29 11:45:30;;;;;;;3.40;3.10;;;;;;;;;;4895276;29;20232;-83
2023/08/29 11:47:56;;;;;;;5.47;2.80;;;;;;;;;;4894930;29;20722;-83
2023/08/29 11:50:23;;;;;;;2.90;2.70;;;;;;;;;;4894502;29;20710;-84
2023/08/29 11:52:51;;;;;;;3.60;3.30;;;;;;;;;;4893890;29;20240;-83
2023/08/29 11:55:18;;;;;;;3.28;3.17;;;;;;;;;;4894819;29;20285;-83
2023/08/29 11:57:47;;;;;;;2.67;2.47;;;;;;;;;;4895044;29;20263;-83
2023/08/29 12:00:16;;;;;;;2.53;2.42;;;;;;;;;;4893694;29;20729;-82
2023/08/29 12:02:44;;;;;;;3.40;2.90;;;;;;;;;;4895648;29;20334;-84
2023/08/29 12:05:12;;;;;;;3.30;3.00;;;;;;;;;;4892777;29;20236;-83
2023/08/29 12:07:41;;;;;;;3.08;2.88;;;;;;;;;;4895555;29;20831;-82
2023/08/29 12:10:13;;;;;;;5.38;3.25;;;;;;;;;;4894815;29;20305;-84
2023/08/29 12:12:41;;;;;;;3.30;3.10;;;;;;;;;;4894533;29;20251;-83
2023/08/29 12:15:10;;;;;;;3.33;3.00;;;;;;;;;;4895414;29;20247;-84
2023/08/29 12:17:38;;;;;;;3.60;3.30;;;;;;;;;;4896845;29;20213;-83
2023/08/29 12:20:22;;;;;;;3.70;3.15;;;;;;;;;;4895467;29;20292;-82
2023/08/29 12:22:52;;;;;;;3.10;2.85;;;;;;;;;;4895001;29;20236;-83
2023/08/29 12:25:19;;;;;;;9.60;3.90;;;;;;;;;;4895967;29;20237;-83
2023/08/29 12:27:47;;;;;;;4.28;3.67;;;;;;;;;;4895979;29;20268;-82
2023/08/29 12:30:14;;;;;;;6.70;3.28;;;;;;;;;;4897341;29;20320;-83
2023/08/29 12:32:42;;;;;;;5.93;3.40;;;;;;;;;;4897511;29;20343;-83
2023/08/29 12:35:10;;;;;;;3.42;3.13;;;;;;;;;;4898253;29;20224;-83
2023/08/29 12:37:39;;;;;;;4.43;3.22;;;;;;;;;;4898042;29;20308;-82
2023/08/29 12:40:08;;;;;;;3.53;3.25;;;;;;;;;;4899594;29;20296;-83
2023/08/29 12:42:35;;;;;;;3.20;3.00;;;;;;;;;;4907742;29;20256;-82
2023/08/29 12:45:03;;;;;;;3.58;3.38;;;;;;;;;;4901317;29;20236;-83
2023/08/29 12:47:31;;;;;;;4.00;3.10;;;;;;;;;;4900873;29;20540;-83
2023/08/29 12:49:59;;;;;;;6.78;3.10;;;;;;;;;;4896240;29;20228;-82
2023/08/29 12:52:28;;;;;;;3.13;2.67;;;;;;;;;;4895435;29;20600;-83
2023/08/29 12:54:55;;;;;;;3.88;3.33;;;;;;;;;;4891997;29;20797;-83
2023/08/29 12:57:21;;;;;;;3.05;2.85;;;;;;;;;;4880275;29;20231;-83
2023/08/29 12:59:49;;;;;;;3.53;3.33;;;;;;;;;;4880074;29;20244;-85
2023/08/29 13:02:17;;;;;;;3.53;3.22;;;;;;;;;;4881571;29;20282;-84
2023/08/29 13:04:45;;;;;;;3.30;3.08;;;;;;;;;;4885812;29;20305;-83
2023/08/29 13:07:13;;;;;;;3.25;2.95;;;;;;;;;;4885826;29;20301;-84
2023/08/29 13:09:43;;;;;;;3.13;3.03;;;;;;;;;;4885256;29;20229;-83
2023/08/29 13:12:11;;;;;;;3.40;3.20;;;;;;;;;;4881506;29;20747;-83
2023/08/29 13:14:39;;;;;;;3.10;3.00;;;;;;;;;;4882196;29;20242;-82
2023/08/29 13:17:11;;;;;;;3.92;3.55;;;;;;;;;;4883509;29;20234;-83
2023/08/29 13:19:38;;;;;;;3.70;3.40;;;;;;;;;;4879580;29;20245;-82
2023/08/29 13:22:07;;;;;;;3.50;3.17;;;;;;;;;;4882394;29;20229;-84
2023/08/29 13:24:35;;;;;;;3.13;2.90;;;;;;;;;;4896133;29;20236;-82
2023/08/29 13:27:04;;;;;;;3.55;3.25;;;;;;;;;;4898888;29;20233;-84
2023/08/29 13:29:32;;;;;;;4.18;3.50;;;;;;;;;;4901058;29;20283;-83
2023/08/29 13:32:00;;;;;;;3.58;3.38;;;;;;;;;;4898456;29;20296;-83
2023/08/29 13:34:27;;;;;;;3.30;3.10;;;;;;;;;;4898860;29;20239;-83
2023/08/29 13:36:55;;;;;;;3.92;3.63;;;;;;;;;;4901161;29;20236;-82
2023/08/29 13:39:22;;;;;;;3.38;3.17;;;;;;;;;;4902014;29;20235;-83
2023/08/29 13:41:50;;;;;;;4.28;3.53;;;;;;;;;;4902773;29;20621;-83
2023/08/29 13:44:19;;;;;;;3.70;3.50;;;;;;;;;;4902933;29;20224;-83
2023/08/29 13:46:47;;;;;;;4.25;3.10;;;;;;;;;;4903078;29;20363;-83
2023/08/29 13:49:14;;;;;;;3.65;3.47;;;;;;;;;;4900397;29;20311;-83
2023/08/29 13:51:41;;;;;;;3.53;3.33;;;;;;;;;;4902636;29;20229;-84
2023/08/29 13:54:15;;;;;;;3.10;2.90;;;;;;;;;;4891885;29;20264;-83
2023/08/29 13:56:44;;;;;;;3.42;3.22;;;;;;;;;;4892307;29;20720;-84
2023/08/29 13:59:12;;;;;;;6.63;3.80;;;;;;;;;;4892922;29;20235;-82
2023/08/29 14:01:42;;;;;;;3.28;3.08;;;;;;;;;;4892702;29;20228;-84
2023/08/29 14:04:09;;;;;;;3.63;3.42;;;;;;;;;;4855096;29;20229;-84
2023/08/29 14:06:36;;;;;;;6.63;3.63;;;;;;;;;;4855355;29;20286;-84
2023/08/29 14:09:03;;;;;;;3.45;3.17;;;;;;;;;;4854768;29;20226;-83
2023/08/29 14:11:30;;;;;;;5.10;4.03;;;;;;;;;;4856128;29;20230;-84
2023/08/29 14:13:58;;;;;;;3.22;3.10;;;;;;;;;;4855222;29;20257;-84
2023/08/29 14:16:26;;;;;;;3.85;3.65;;;;;;;;;;4855563;29;20238;-84
2023/08/29 14:18:54;;;;;;;4.80;4.35;;;;;;;;;;4854553;29;20238;-84
2023/08/29 14:21:22;;;;;;;3.60;3.40;;;;;;;;;;4855374;29;20716;-83
2023/08/29 14:23:49;;;;;;;5.07;3.80;;;;;;;;;;4869936;29;20666;-85
2023/08/29 14:26:16;;;;;;;4.38;3.72;;;;;;;;;;4892021;29;20225;-84
2023/08/29 14:28:46;;;;;;;4.22;3.92;;;;;;;;;;4872767;29;20289;-85
2023/08/29 14:31:14;;;;;;;5.22;4.00;;;;;;;;;;4874022;29;20252;-83
2023/08/29 14:33:42;;;;;;;3.30;3.17;;;;;;;;;;4873833;29;20470;-83
2023/08/29 14:36:10;;;;;;;4.50;3.67;;;;;;;;;;4873138;29;20233;-83
2023/08/29 14:38:37;;;;;;;4.68;3.88;;;;;;;;;;4873972;29;20281;-82
2023/08/29 14:41:08;;;;;;;4.13;3.75;;;;;;;;;;4874167;29;20230;-83
2023/08/29 14:43:36;;;;;;;4.88;4.60;;;;;;;;;;4873562;29;20748;-84
2023/08/29 14:46:05;;;;;;;7.38;4.57;;;;;;;;;;4874177;29;20348;-84
2023/08/29 14:48:33;;;;;;;10.18;4.07;;;;;;;;;;4873747;29;20256;-83
2023/08/29 14:51:00;;;;;;;5.57;3.88;;;;;;;;;;4874963;29;20229;-84